Saint-Pacome, Canada
Current Conditions -  °F | °C
As of 10:53 AM on Thursday 27 Nov 2014 (Local Time) from KFVE Reporting Station
Unknown Precip Unknown Precip  
Wind Chill:   Ceiling: 2800
Heat Index: 22°   Visibility: 7mi
Dew Point: 17°   Wind: 22mph
Humidity: 82%   Direction: 340°NNW
Pressure: 29.8"   Gusts: 30mph
Location:  47.42°N, 69.95°W
Report Text: KFVE 271553Z AUTO 34019G26KT 7SM UP SCT014 SCT020 OVC028 M06/M08 A2980 RMK AO2 PK WND 33026/1546 UPB41SNE41 SLP105 P0000 T10561083
Loading
Personal Weather Stations






























Interactive Weather Map New forecast layout! Learn more

10-Day Weather Forecast

Advertisements
Track Severe Weather on mobile